createdAt,value
2018-09-23T00:01:34.040Z,13.80
2018-09-23T00:04:02.926Z,13.80
2018-09-23T00:06:32.105Z,13.70
2018-09-23T00:09:01.013Z,13.80
2018-09-23T00:11:30.179Z,13.80
2018-09-23T00:13:59.077Z,13.80
2018-09-23T00:16:29.030Z,13.80
2018-09-23T00:18:58.215Z,13.80
2018-09-23T00:21:27.558Z,13.70
2018-09-23T00:23:56.792Z,13.80
2018-09-23T00:26:26.315Z,13.80
2018-09-23T00:28:55.478Z,13.70
2018-09-23T00:31:24.391Z,13.70
2018-09-23T00:33:53.498Z,13.80
2018-09-23T00:38:32.201Z,13.90
2018-09-23T00:41:01.176Z,13.90
2018-09-23T00:43:30.448Z,13.90
2018-09-23T00:45:59.768Z,13.80
2018-09-23T00:48:28.861Z,13.90
2018-09-23T00:50:58.031Z,13.80
2018-09-23T00:53:27.038Z,13.80
2018-09-23T00:55:56.326Z,13.80
2018-09-23T00:58:25.552Z,13.80
2018-09-23T01:00:54.510Z,13.90
2018-09-23T01:06:06.405Z,13.80
2018-09-23T01:08:35.313Z,13.80
2018-09-23T01:11:04.291Z,13.80
2018-09-23T01:13:33.451Z,13.80
2018-09-23T01:16:02.658Z,13.80
2018-09-23T01:18:31.648Z,13.80
2018-09-23T01:21:00.615Z,13.80
2018-09-23T01:23:29.772Z,13.80
2018-09-23T01:25:58.804Z,13.80
2018-09-23T01:28:28.034Z,13.80
2018-09-23T01:30:57.192Z,13.80
2018-09-23T01:33:26.404Z,13.70
2018-09-23T01:35:55.401Z,13.80
2018-09-23T01:38:24.904Z,13.80
2018-09-23T01:40:54.160Z,13.80
2018-09-23T01:43:23.127Z,13.90
2018-09-23T01:45:52.320Z,13.90
2018-09-23T01:48:21.529Z,13.80
2018-09-23T01:50:50.508Z,13.90
2018-09-23T01:53:19.704Z,13.90
2018-09-23T01:55:48.929Z,13.80
2018-09-23T01:58:18.102Z,13.80
2018-09-23T02:00:47.132Z,13.80
2018-09-23T02:03:16.319Z,13.80
2018-09-23T02:05:45.279Z,13.90
2018-09-23T02:08:14.464Z,13.80
2018-09-23T02:10:43.649Z,13.90
2018-09-23T02:13:12.844Z,13.90
2018-09-23T02:15:41.780Z,13.90
2018-09-23T02:18:11.028Z,13.90
2018-09-23T02:20:40.215Z,13.90
2018-09-23T02:23:09.413Z,13.90
2018-09-23T02:25:38.372Z,13.90
2018-09-23T02:28:07.290Z,13.90
2018-09-23T02:30:36.306Z,13.90
2018-09-23T02:33:05.248Z,13.90
2018-09-23T02:35:34.431Z,13.90
2018-09-23T02:38:03.618Z,13.90
2018-09-23T02:40:32.775Z,13.90
2018-09-23T02:43:01.980Z,13.80
2018-09-23T02:45:30.945Z,13.90
2018-09-23T02:47:59.880Z,13.90
2018-09-23T02:50:29.240Z,13.80
2018-09-23T02:52:58.239Z,13.90
2018-09-23T02:55:27.385Z,13.90
2018-09-23T02:57:56.811Z,13.90
2018-09-23T03:00:25.801Z,13.90
2018-09-23T03:02:54.977Z,13.90
2018-09-23T03:05:24.134Z,13.80
2018-09-23T03:07:53.096Z,13.90
2018-09-23T03:10:22.281Z,13.80
2018-09-23T03:12:51.231Z,13.90
2018-09-23T03:15:20.439Z,13.90
2018-09-23T03:17:49.579Z,13.90
2018-09-23T03:20:18.789Z,13.80
2018-09-23T03:22:47.744Z,13.90
2018-09-23T03:25:16.710Z,13.90
2018-09-23T03:27:45.901Z,13.90
2018-09-23T03:30:15.080Z,13.80
2018-09-23T03:32:43.984Z,13.90
2018-09-23T03:35:12.944Z,13.90
2018-09-23T03:37:42.141Z,13.80
2018-09-23T03:40:11.325Z,13.80
2018-09-23T03:42:40.706Z,13.80
2018-09-23T03:45:09.871Z,13.90
2018-09-23T03:47:39.074Z,13.90
2018-09-23T03:50:08.039Z,13.90
2018-09-23T03:52:37.257Z,13.80
2018-09-23T03:55:06.445Z,13.80
2018-09-23T03:57:35.635Z,13.90
2018-09-23T04:00:04.992Z,13.90
2018-09-23T04:02:34.273Z,13.80
2018-09-23T04:05:03.229Z,13.80
2018-09-23T04:07:32.536Z,13.80
2018-09-23T04:10:01.532Z,13.90
2018-09-23T04:12:30.494Z,13.80
2018-09-23T04:15:15.877Z,13.80
2018-09-23T04:17:45.088Z,13.80
2018-09-23T04:20:14.166Z,13.80
2018-09-23T04:22:47.643Z,13.80
2018-09-23T04:25:16.934Z,13.80
2018-09-23T04:27:46.125Z,13.90
2018-09-23T04:30:15.440Z,13.80
2018-09-23T04:32:44.362Z,13.90
2018-09-23T04:35:13.611Z,13.80
2018-09-23T04:37:42.693Z,13.90
2018-09-23T04:40:12.000Z,13.90
2018-09-23T04:42:40.964Z,13.90
2018-09-23T04:45:10.141Z,13.80
2018-09-23T04:47:39.124Z,13.90
2018-09-23T04:50:08.867Z,13.80
2018-09-23T04:52:37.834Z,13.80
2018-09-23T04:55:06.750Z,13.80
2018-09-23T04:57:35.968Z,13.80
2018-09-23T05:00:04.981Z,13.80
2018-09-23T05:02:34.109Z,13.80
2018-09-23T05:05:03.084Z,13.80
2018-09-23T05:07:31.997Z,13.80
2018-09-23T05:10:01.293Z,13.70
2018-09-23T05:12:30.307Z,13.70
2018-09-23T05:14:59.872Z,13.70
2018-09-23T05:17:28.793Z,13.70
2018-09-23T05:19:57.721Z,13.70
2018-09-23T05:22:26.890Z,13.70
2018-09-23T05:24:55.832Z,13.70
2018-09-23T05:27:24.992Z,13.60
2018-09-23T05:29:54.176Z,13.70
2018-09-23T05:32:23.180Z,13.70
2018-09-23T05:34:59.109Z,13.70
2018-09-23T05:37:28.300Z,13.70
2018-09-23T05:39:57.324Z,13.80
2018-09-23T05:42:26.250Z,13.70
2018-09-23T05:44:55.217Z,13.80
2018-09-23T05:47:24.183Z,13.80
2018-09-23T05:49:53.187Z,13.80
2018-09-23T05:52:22.481Z,13.80
2018-09-23T05:54:51.651Z,13.80
2018-09-23T05:57:20.920Z,13.90
2018-09-23T05:59:49.959Z,14.00
2018-09-23T06:02:19.141Z,14.00
2018-09-23T06:04:48.324Z,13.90
2018-09-23T06:07:17.276Z,14.10
2018-09-23T06:09:46.289Z,14.10
2018-09-23T06:12:15.295Z,14.00
2018-09-23T06:14:44.595Z,14.10
2018-09-23T06:17:14.387Z,14.10
2018-09-23T06:19:43.636Z,14.10
2018-09-23T06:22:12.849Z,14.10
2018-09-23T06:24:41.895Z,14.10
2018-09-23T06:27:11.429Z,14.10
2018-09-23T06:29:40.509Z,14.10
2018-09-23T06:32:09.709Z,14.10
2018-09-23T06:34:38.894Z,14.10
2018-09-23T06:37:07.997Z,14.10
2018-09-23T06:39:37.164Z,14.10
2018-09-23T06:42:06.365Z,14.10
2018-09-23T06:44:35.658Z,14.10
2018-09-23T06:47:11.485Z,14.20
2018-09-23T06:49:40.475Z,14.20
2018-09-23T06:52:09.387Z,14.20
2018-09-23T06:54:38.585Z,14.20
2018-09-23T06:57:07.582Z,14.20
2018-09-23T06:59:36.532Z,14.30
2018-09-23T07:02:05.740Z,14.30
2018-09-23T07:04:34.983Z,14.30
2018-09-23T07:07:04.193Z,14.30
2018-09-23T07:09:33.177Z,14.30
2018-09-23T07:12:02.119Z,14.20
2018-09-23T07:14:31.736Z,14.20
2018-09-23T07:17:00.968Z,14.10
2018-09-23T07:19:29.937Z,14.20
2018-09-23T07:21:59.125Z,14.10
2018-09-23T07:24:28.373Z,14.10
2018-09-23T07:26:57.733Z,14.10
2018-09-23T07:29:27.096Z,14.20
2018-09-23T07:31:56.289Z,14.20
2018-09-23T07:34:25.320Z,14.20
2018-09-23T07:36:54.741Z,14.10
2018-09-23T07:39:24.032Z,14.10
2018-09-23T07:41:53.350Z,14.10
2018-09-23T07:44:22.689Z,14.00
2018-09-23T07:46:51.952Z,14.00
2018-09-23T07:49:21.309Z,13.90
2018-09-23T07:51:50.277Z,14.00
2018-09-23T07:54:19.515Z,13.90
2018-09-23T07:56:48.545Z,13.90
2018-09-23T07:59:17.480Z,13.90
2018-09-23T08:01:46.982Z,13.80
2018-09-23T08:04:16.024Z,13.80
2018-09-23T08:06:45.035Z,13.80
2018-09-23T08:09:14.029Z,13.80
2018-09-23T08:11:43.640Z,13.80
2018-09-23T08:14:12.953Z,13.80
2018-09-23T08:16:41.606Z,13.80
2018-09-23T08:19:10.615Z,13.80
2018-09-23T08:21:39.906Z,13.80
2018-09-23T08:24:10.744Z,13.90
2018-09-23T08:26:40.115Z,13.90
2018-09-23T08:29:09.255Z,13.90
2018-09-23T08:31:38.440Z,13.90
2018-09-23T08:34:08.296Z,14.10
2018-09-23T08:36:37.548Z,14.10
2018-09-23T08:39:07.244Z,14.20
2018-09-23T08:41:36.600Z,14.20
2018-09-23T08:44:05.846Z,14.20
2018-09-23T08:46:34.856Z,14.10
2018-09-23T08:49:03.865Z,14.20
2018-09-23T08:51:32.980Z,14.30
2018-09-23T08:54:02.166Z,14.30
2018-09-23T08:56:31.181Z,14.40
2018-09-23T08:59:00.108Z,14.40
2018-09-23T09:01:29.096Z,14.40
2018-09-23T09:03:58.016Z,14.40
2018-09-23T09:06:26.943Z,14.50
2018-09-23T09:08:56.104Z,14.50
2018-09-23T09:11:25.344Z,14.70
2018-09-23T09:13:54.392Z,14.90
2018-09-23T09:16:23.347Z,14.90
2018-09-23T09:18:52.602Z,15.00
2018-09-23T09:21:21.799Z,15.10
2018-09-23T09:23:50.969Z,15.20
2018-09-23T09:26:20.148Z,15.20
2018-09-23T09:28:49.428Z,15.20
2018-09-23T09:31:18.708Z,15.20
2018-09-23T09:33:47.907Z,15.20
2018-09-23T09:36:17.076Z,15.20
2018-09-23T09:38:46.079Z,14.90
2018-09-23T09:41:15.274Z,14.90
2018-09-23T09:43:44.598Z,15.00
2018-09-23T09:46:13.965Z,14.90
2018-09-23T09:48:43.147Z,14.90
2018-09-23T09:51:12.931Z,14.80
2018-09-23T09:53:42.317Z,14.90
2018-09-23T09:56:11.673Z,14.90
2018-09-23T09:58:41.834Z,14.90
2018-09-23T10:01:10.970Z,14.90
2018-09-23T10:03:40.117Z,15.10
2018-09-23T10:06:09.120Z,15.00
2018-09-23T10:08:38.246Z,14.90
2018-09-23T10:11:07.342Z,14.80
2018-09-23T10:13:36.527Z,14.90
2018-09-23T10:16:05.565Z,15.10
2018-09-23T10:18:34.724Z,15.10
2018-09-23T10:21:03.824Z,15.20
2018-09-23T10:23:33.120Z,15.10
2018-09-23T10:26:02.147Z,15.10
2018-09-23T10:28:31.357Z,15.10
2018-09-23T10:31:00.374Z,15.20
2018-09-23T10:33:29.623Z,15.20
2018-09-23T10:35:58.774Z,15.20
2018-09-23T10:38:27.992Z,15.20
2018-09-23T10:40:57.150Z,15.10
2018-09-23T10:43:26.312Z,15.10
2018-09-23T10:45:55.486Z,15.00
2018-09-23T10:48:24.403Z,15.20
2018-09-23T10:50:53.587Z,15.10
2018-09-23T10:53:22.542Z,15.20
2018-09-23T10:55:51.692Z,15.10
2018-09-23T10:58:20.876Z,15.20
2018-09-23T11:00:50.152Z,15.10
2018-09-23T11:03:19.099Z,15.20
2018-09-23T11:05:47.992Z,15.10
2018-09-23T11:08:17.220Z,14.80
2018-09-23T11:10:46.380Z,15.10
2018-09-23T11:13:15.539Z,15.10
2018-09-23T11:15:44.673Z,14.80
2018-09-23T11:18:13.623Z,14.90
2018-09-23T11:20:43.091Z,15.00
2018-09-23T11:23:12.365Z,15.00
2018-09-23T11:25:41.715Z,15.20
2018-09-23T11:28:10.884Z,14.80
2018-09-23T11:30:39.868Z,14.90
2018-09-23T11:33:08.750Z,15.10
2018-09-23T11:35:37.700Z,14.80
2018-09-23T11:38:06.850Z,14.60
2018-09-23T11:40:35.838Z,14.80
2018-09-23T11:43:05.095Z,14.70
2018-09-23T11:45:34.261Z,14.50
2018-09-23T11:48:03.467Z,14.40
2018-09-23T11:50:32.609Z,14.30
2018-09-23T11:53:01.787Z,14.40
2018-09-23T11:55:30.924Z,14.50
2018-09-23T11:58:00.127Z,14.40
2018-09-23T12:00:29.278Z,14.70
2018-09-23T12:02:58.251Z,14.60
2018-09-23T12:05:27.156Z,14.80
2018-09-23T12:07:56.315Z,14.70
2018-09-23T12:10:25.310Z,14.80
2018-09-23T12:12:54.472Z,14.90
2018-09-23T12:15:23.359Z,14.90
2018-09-23T12:17:52.539Z,14.50
2018-09-23T12:20:21.463Z,14.60
2018-09-23T12:22:50.550Z,14.60
2018-09-23T12:25:19.878Z,14.30
2018-09-23T12:27:49.008Z,14.00
2018-09-23T12:30:18.264Z,13.60
2018-09-23T12:32:47.403Z,13.70
2018-09-23T12:35:16.539Z,13.80
2018-09-23T12:37:45.780Z,13.60
2018-09-23T12:40:14.692Z,13.70
2018-09-23T12:42:43.607Z,13.60
2018-09-23T12:45:12.739Z,13.40
2018-09-23T12:47:41.937Z,13.20
2018-09-23T12:50:10.869Z,13.40
2018-09-23T12:52:40.053Z,13.20
2018-09-23T12:55:09.225Z,13.10
2018-09-23T12:57:38.326Z,13.00
2018-09-23T13:00:07.477Z,13.20
2018-09-23T13:02:36.642Z,13.30
2018-09-23T13:05:06.059Z,13.30
2018-09-23T13:07:34.988Z,13.30
2018-09-23T13:10:04.164Z,13.20
2018-09-23T13:12:33.134Z,13.30
2018-09-23T13:15:02.340Z,13.20
2018-09-23T13:17:31.267Z,13.20
2018-09-23T13:20:00.387Z,13.00
2018-09-23T13:22:29.527Z,13.10
2018-09-23T13:24:58.687Z,13.10
2018-09-23T13:27:27.852Z,12.90
2018-09-23T13:29:57.023Z,12.20
2018-09-23T13:32:26.151Z,13.30
2018-09-23T13:34:55.098Z,13.10
2018-09-23T13:37:29.883Z,15.30
